createdAt,value
2018-02-23T00:01:28.852Z,19.87
2018-02-23T00:03:56.371Z,21.67
2018-02-23T00:06:23.893Z,18.10
2018-02-23T00:08:51.416Z,17.40
2018-02-23T00:11:18.921Z,21.93
2018-02-23T00:13:46.445Z,20.70
2018-02-23T00:16:13.970Z,22.07
2018-02-23T00:18:41.483Z,18.67
2018-02-23T00:21:09.021Z,20.37
2018-02-23T00:23:36.548Z,18.90
2018-02-23T00:26:04.080Z,19.33
2018-02-23T00:28:31.604Z,20.23
2018-02-23T00:30:59.127Z,17.63
2018-02-23T00:33:26.643Z,16.23
2018-02-23T00:35:54.182Z,17.70
2018-02-23T00:38:21.706Z,21.50
2018-02-23T00:40:49.250Z,18.23
2018-02-23T00:43:16.770Z,19.00
2018-02-23T00:45:44.289Z,20.47
2018-02-23T00:48:11.813Z,19.47
2018-02-23T00:50:39.337Z,20.23
2018-02-23T00:53:06.852Z,20.87
2018-02-23T00:55:34.389Z,21.87
2018-02-23T00:58:01.908Z,21.10
2018-02-23T01:00:29.426Z,23.10
2018-02-23T01:02:56.972Z,24.13
2018-02-23T01:05:24.499Z,23.33
2018-02-23T01:07:52.020Z,22.17
2018-02-23T01:10:19.533Z,26.80
2018-02-23T01:12:47.060Z,24.00
2018-02-23T01:15:14.582Z,25.03
2018-02-23T01:17:42.101Z,29.87
2018-02-23T01:20:09.624Z,25.10
2018-02-23T01:22:37.176Z,25.53
2018-02-23T01:25:04.705Z,26.00
2018-02-23T01:27:32.225Z,26.27
2018-02-23T01:29:59.741Z,29.27
2018-02-23T01:32:27.265Z,25.33
2018-02-23T01:34:54.802Z,26.43
2018-02-23T01:37:22.328Z,29.63
2018-02-23T01:39:49.859Z,27.40
2018-02-23T01:42:17.383Z,28.27
2018-02-23T01:44:44.967Z,27.17
2018-02-23T01:47:12.494Z,27.73
2018-02-23T01:49:40.013Z,28.60
2018-02-23T01:52:07.529Z,30.43
2018-02-23T01:54:35.045Z,25.70
2018-02-23T01:57:02.566Z,28.40
2018-02-23T01:59:30.080Z,24.53
2018-02-23T02:01:57.597Z,27.47
2018-02-23T02:04:25.108Z,25.60
2018-02-23T02:06:52.629Z,29.67
2018-02-23T02:09:20.153Z,28.80
2018-02-23T02:11:47.679Z,27.93
2018-02-23T02:14:15.194Z,23.40
2018-02-23T02:16:42.731Z,26.47
2018-02-23T02:19:10.260Z,25.63
2018-02-23T02:21:37.782Z,24.77
2018-02-23T02:24:05.298Z,23.70
2018-02-23T02:26:32.822Z,23.67
2018-02-23T02:29:00.362Z,24.77
2018-02-23T02:31:27.873Z,25.60
2018-02-23T02:33:55.393Z,24.50
2018-02-23T02:36:22.920Z,26.00
2018-02-23T02:38:50.446Z,24.40
2018-02-23T02:41:17.971Z,25.53
2018-02-23T02:43:45.498Z,23.00
2018-02-23T02:46:13.022Z,22.43
2018-02-23T02:48:40.537Z,23.07
2018-02-23T02:51:08.057Z,26.57
2018-02-23T02:53:35.588Z,24.60
2018-02-23T02:56:03.111Z,24.67
2018-02-23T02:58:30.641Z,24.87
2018-02-23T03:00:58.161Z,24.37
2018-02-23T03:03:25.677Z,26.67
2018-02-23T03:05:53.201Z,26.37
2018-02-23T03:08:20.732Z,24.47
2018-02-23T03:10:48.252Z,24.00
2018-02-23T03:13:15.769Z,28.63
2018-02-23T03:15:43.300Z,27.27
2018-02-23T03:18:10.829Z,31.43
2018-02-23T03:20:38.353Z,29.23
2018-02-23T03:23:05.873Z,31.07
2018-02-23T03:25:33.402Z,30.23
2018-02-23T03:28:00.920Z,26.80
2018-02-23T03:30:28.459Z,27.80
2018-02-23T03:32:55.981Z,29.27
2018-02-23T03:35:23.505Z,30.47
2018-02-23T03:37:51.029Z,29.10
2018-02-23T03:40:18.553Z,30.47
2018-02-23T03:42:46.082Z,31.43
2018-02-23T03:45:13.601Z,32.43
2018-02-23T03:47:41.123Z,31.37
2018-02-23T03:50:08.655Z,29.87
2018-02-23T03:52:36.174Z,30.73
2018-02-23T03:55:03.723Z,31.93
2018-02-23T03:57:31.245Z,39.10
2018-02-23T03:59:58.765Z,38.73
2018-02-23T04:02:26.281Z,36.57
2018-02-23T04:04:53.810Z,37.57
2018-02-23T04:07:21.332Z,35.37
2018-02-23T04:09:48.857Z,37.13
2018-02-23T04:12:16.391Z,37.87
2018-02-23T04:14:43.924Z,34.90
2018-02-23T04:17:11.452Z,33.23
2018-02-23T04:19:38.975Z,36.97
2018-02-23T04:22:06.495Z,32.50
2018-02-23T04:24:34.020Z,30.93
2018-02-23T04:27:01.542Z,38.50
2018-02-23T04:29:29.077Z,37.33
2018-02-23T04:31:56.613Z,34.80
2018-02-23T04:34:24.138Z,38.50
2018-02-23T04:36:51.663Z,36.60
2018-02-23T04:39:19.186Z,39.67
2018-02-23T04:41:46.709Z,45.00
2018-02-23T04:44:14.234Z,39.73
2018-02-23T04:46:41.749Z,43.80
2018-02-23T04:49:09.277Z,41.47
2018-02-23T04:51:36.801Z,38.17
2018-02-23T04:54:04.333Z,41.43
2018-02-23T04:56:31.858Z,42.60
2018-02-23T04:58:59.384Z,41.73
2018-02-23T05:01:26.903Z,44.57
2018-02-23T05:03:54.429Z,41.87
2018-02-23T05:06:22.074Z,44.53
2018-02-23T05:08:49.621Z,41.40
2018-02-23T05:11:17.142Z,42.90
2018-02-23T05:13:44.677Z,39.27
2018-02-23T05:16:12.210Z,45.47
2018-02-23T05:18:39.735Z,43.33
2018-02-23T05:21:07.274Z,44.90
2018-02-23T05:23:34.798Z,43.37
2018-02-23T05:26:02.329Z,43.60
2018-02-23T05:28:29.882Z,41.43
2018-02-23T05:30:57.417Z,45.83
2018-02-23T05:33:24.946Z,43.77
2018-02-23T05:35:52.464Z,46.57
2018-02-23T05:38:19.979Z,50.03
2018-02-23T05:40:47.502Z,45.70
2018-02-23T05:43:15.031Z,50.07
2018-02-23T05:45:42.574Z,52.07
2018-02-23T05:48:10.106Z,52.17
2018-02-23T05:50:37.641Z,55.50
2018-02-23T05:53:05.200Z,56.07
2018-02-23T05:55:32.728Z,56.10
2018-02-23T05:58:00.250Z,55.07
2018-02-23T06:00:27.764Z,61.23
2018-02-23T06:02:55.288Z,58.17
2018-02-23T06:05:22.809Z,55.73
2018-02-23T06:07:50.344Z,55.93
2018-02-23T06:10:17.864Z,51.73
2018-02-23T06:12:45.398Z,55.33
2018-02-23T06:15:12.929Z,55.50
2018-02-23T06:17:45.926Z,56.03
2018-02-23T06:20:13.446Z,57.83
2018-02-23T06:22:41.043Z,54.83
2018-02-23T06:25:08.566Z,61.93
2018-02-23T06:27:36.112Z,58.50
2018-02-23T06:30:03.641Z,56.10
2018-02-23T06:32:31.165Z,57.80
2018-02-23T06:34:58.691Z,55.23
2018-02-23T06:37:26.217Z,58.13
2018-02-23T06:39:53.728Z,55.90
2018-02-23T06:42:21.249Z,60.90
2018-02-23T06:44:48.774Z,60.90
2018-02-23T06:47:16.295Z,60.53
2018-02-23T06:49:43.819Z,62.90
2018-02-23T06:52:11.341Z,61.27
2018-02-23T06:54:38.869Z,56.37
2018-02-23T06:57:06.473Z,61.80
2018-02-23T06:59:33.997Z,55.37
2018-02-23T07:02:01.527Z,53.83
2018-02-23T07:04:29.068Z,55.30
2018-02-23T07:06:56.592Z,61.10
2018-02-23T07:09:24.124Z,57.00
2018-02-23T07:11:51.652Z,57.23
2018-02-23T07:14:19.186Z,63.33
2018-02-23T07:16:46.700Z,57.43
2018-02-23T07:19:14.222Z,61.60
2018-02-23T07:21:41.749Z,58.23
2018-02-23T07:24:09.275Z,59.83
2018-02-23T07:26:36.813Z,63.17
2018-02-23T07:29:04.382Z,61.87
2018-02-23T07:31:31.903Z,61.13
2018-02-23T07:33:59.420Z,63.10
2018-02-23T07:36:26.950Z,60.53
2018-02-23T07:38:54.471Z,56.43
2018-02-23T07:41:22.017Z,61.00
2018-02-23T07:43:49.531Z,59.27
2018-02-23T07:46:17.044Z,53.17
2018-02-23T07:48:44.566Z,54.47
2018-02-23T07:51:12.096Z,56.73
2018-02-23T07:53:39.623Z,63.50
2018-02-23T07:56:07.144Z,50.90
2018-02-23T07:58:34.669Z,51.47
2018-02-23T08:01:02.192Z,55.97
2018-02-23T08:03:29.709Z,61.97
2018-02-23T08:05:57.229Z,54.13
2018-02-23T08:08:24.748Z,54.10
2018-02-23T08:10:52.269Z,54.13
2018-02-23T08:13:19.794Z,53.73
2018-02-23T08:15:47.315Z,54.03
2018-02-23T08:18:14.836Z,53.13
2018-02-23T08:20:42.357Z,50.50
2018-02-23T08:23:09.869Z,52.87
2018-02-23T08:25:37.412Z,51.50
2018-02-23T08:28:04.931Z,49.37
2018-02-23T08:30:32.445Z,54.30
2018-02-23T08:32:59.982Z,52.87
2018-02-23T08:35:27.500Z,57.87
2018-02-23T08:37:55.026Z,52.93
2018-02-23T08:40:22.546Z,53.47
2018-02-23T08:42:50.070Z,56.57
2018-02-23T08:45:17.590Z,58.57
2018-02-23T08:47:45.108Z,54.57
2018-02-23T08:50:12.619Z,55.90
2018-02-23T08:52:40.140Z,53.33
2018-02-23T08:55:07.654Z,54.83
2018-02-23T08:57:35.172Z,54.60
2018-02-23T09:00:02.701Z,50.03
2018-02-23T09:02:30.209Z,50.37
2018-02-23T09:04:57.725Z,52.00
2018-02-23T09:07:25.244Z,50.60
2018-02-23T09:09:52.756Z,54.90
2018-02-23T09:12:20.283Z,47.00
2018-02-23T09:14:47.797Z,44.20
2018-02-23T09:17:15.368Z,44.80
2018-02-23T09:19:42.857Z,48.97
2018-02-23T09:22:10.369Z,41.93
2018-02-23T09:24:37.912Z,36.63
2018-02-23T09:27:05.428Z,44.60
2018-02-23T09:29:32.940Z,36.93
2018-02-23T09:32:00.456Z,38.00
2018-02-23T09:34:37.730Z,39.60
2018-02-23T09:37:05.262Z,39.80
2018-02-23T09:39:32.782Z,38.40
2018-02-23T09:42:00.303Z,36.33
2018-02-23T09:44:27.846Z,32.63
2018-02-23T09:46:55.354Z,32.43
2018-02-23T09:49:22.861Z,30.23
2018-02-23T09:51:50.389Z,28.23
2018-02-23T09:54:17.924Z,28.38
2018-02-23T09:56:45.444Z,27.62
2018-02-23T09:59:12.978Z,29.45
2018-02-23T10:01:40.510Z,28.08
2018-02-23T10:04:08.030Z,25.08
2018-02-23T10:06:35.561Z,26.48
2018-02-23T10:09:03.089Z,24.87
2018-02-23T10:11:30.621Z,24.65
2018-02-23T10:13:58.142Z,25.58
2018-02-23T10:16:25.655Z,23.15
2018-02-23T10:18:53.184Z,24.55
2018-02-23T10:21:20.707Z,23.20
2018-02-23T10:23:48.232Z,26.37
2018-02-23T10:26:15.757Z,24.77
2018-02-23T10:28:43.272Z,27.07
2018-02-23T10:31:10.788Z,27.13
2018-02-23T10:33:38.337Z,29.17
2018-02-23T10:36:05.857Z,32.03
2018-02-23T10:38:33.372Z,29.93
2018-02-23T10:41:00.912Z,37.17
2018-02-23T10:43:28.443Z,30.50
2018-02-23T10:45:55.970Z,31.00
2018-02-23T10:48:23.489Z,34.17
2018-02-23T10:50:51.008Z,32.13
2018-02-23T10:53:18.516Z,36.87
2018-02-23T10:55:46.024Z,30.73
2018-02-23T10:58:13.599Z,34.93
2018-02-23T11:00:41.112Z,33.53
2018-02-23T11:03:08.645Z,30.70
2018-02-23T11:05:36.202Z,34.00
2018-02-23T11:08:03.713Z,31.87
2018-02-23T11:10:31.231Z,33.07
2018-02-23T11:12:58.764Z,31.87
2018-02-23T11:15:26.277Z,30.23
2018-02-23T11:17:53.801Z,31.10
2018-02-23T11:20:21.318Z,30.67
2018-02-23T11:22:48.830Z,32.70
2018-02-23T11:25:16.338Z,31.00
2018-02-23T11:27:43.851Z,28.03
2018-02-23T11:30:11.379Z,37.00
2018-02-23T11:32:38.899Z,36.80
2018-02-23T11:35:06.408Z,38.27
2018-02-23T11:37:33.933Z,31.87
2018-02-23T11:40:01.451Z,33.30
2018-02-23T11:42:29.001Z,35.00
2018-02-23T11:44:56.516Z,41.00
2018-02-23T11:47:24.053Z,34.30
2018-02-23T11:49:51.569Z,32.83
2018-02-23T11:52:19.081Z,33.23
2018-02-23T11:54:46.661Z,37.90
2018-02-23T11:57:14.188Z,31.67
2018-02-23T11:59:41.705Z,31.70
2018-02-23T12:02:09.226Z,35.50
2018-02-23T12:04:36.767Z,35.47
2018-02-23T12:07:04.286Z,36.80
2018-02-23T12:09:31.803Z,35.33
2018-02-23T12:11:59.326Z,27.03
2018-02-23T12:14:26.937Z,39.53
2018-02-23T12:16:54.457Z,30.43
2018-02-23T12:19:21.982Z,32.90
2018-02-23T12:21:49.497Z,33.87
2018-02-23T12:24:17.018Z,28.87
2018-02-23T12:26:44.548Z,34.80
2018-02-23T12:29:12.062Z,37.00
2018-02-23T12:31:39.580Z,34.57
2018-02-23T12:34:07.094Z,31.63
2018-02-23T12:36:34.629Z,36.70
2018-02-23T12:39:02.144Z,36.07
2018-02-23T12:41:29.681Z,34.87
2018-02-23T12:43:57.209Z,31.10
2018-02-23T12:46:24.732Z,31.30
2018-02-23T12:48:52.245Z,32.43
2018-02-23T12:51:19.758Z,32.27
2018-02-23T12:53:47.277Z,31.47
2018-02-23T12:56:14.816Z,33.47
2018-02-23T12:58:42.334Z,31.10
2018-02-23T13:01:09.870Z,33.87
2018-02-23T13:03:37.390Z,35.27
2018-02-23T13:06:04.914Z,31.40
2018-02-23T13:08:32.440Z,31.10
2018-02-23T13:10:59.951Z,33.50
2018-02-23T13:13:27.465Z,30.67
2018-02-23T13:15:54.989Z,33.13
2018-02-23T13:18:22.508Z,33.93
2018-02-23T13:20:50.025Z,30.53
2018-02-23T13:23:17.544Z,31.67
2018-02-23T13:25:45.064Z,29.20
2018-02-23T13:28:18.125Z,29.30
2018-02-23T13:30:45.638Z,29.83
2018-02-23T13:33:13.155Z,31.80
2018-02-23T13:35:40.682Z,33.10
2018-02-23T13:38:08.206Z,33.33
2018-02-23T13:40:35.724Z,35.20
2018-02-23T13:43:03.234Z,35.63
2018-02-23T13:45:30.762Z,33.33
2018-02-23T13:47:58.311Z,38.80
2018-02-23T13:50:25.828Z,37.33
2018-02-23T13:52:53.356Z,35.47
2018-02-23T13:55:20.873Z,35.80
2018-02-23T13:57:48.420Z,34.70
2018-02-23T14:00:15.939Z,35.37
2018-02-23T14:02:43.454Z,37.53
2018-02-23T14:05:10.980Z,34.97
2018-02-23T14:07:38.508Z,38.10
2018-02-23T14:10:06.030Z,31.63
2018-02-23T14:12:33.547Z,30.53
2018-02-23T14:15:01.062Z,31.50
2018-02-23T14:17:28.588Z,34.60
2018-02-23T14:19:56.117Z,35.80
2018-02-23T14:22:23.628Z,31.40
2018-02-23T14:24:51.136Z,30.80
2018-02-23T14:27:18.662Z,29.50
2018-02-23T14:29:46.181Z,31.33
2018-02-23T14:32:13.704Z,32.37
2018-02-23T14:34:41.231Z,28.53
2018-02-23T14:37:08.751Z,27.40
2018-02-23T14:39:36.267Z,26.03
2018-02-23T14:42:03.785Z,31.33
2018-02-23T14:44:31.301Z,29.67
2018-02-23T14:46:58.817Z,26.23
2018-02-23T14:49:26.338Z,27.37
2018-02-23T14:51:53.850Z,24.93
2018-02-23T14:54:21.430Z,25.13
2018-02-23T14:56:48.946Z,26.77
2018-02-23T14:59:16.511Z,26.37
2018-02-23T15:01:44.023Z,28.40
2018-02-23T15:04:11.545Z,33.33
2018-02-23T15:06:39.063Z,28.43
2018-02-23T15:09:06.592Z,28.13
2018-02-23T15:11:34.111Z,24.97
2018-02-23T15:14:01.627Z,29.10
2018-02-23T15:16:29.142Z,28.17
2018-02-23T15:18:56.668Z,36.67
2018-02-23T15:21:24.189Z,34.13
2018-02-23T15:23:51.704Z,28.50
2018-02-23T15:26:19.214Z,31.83
2018-02-23T15:28:46.737Z,32.17
2018-02-23T15:31:26.029Z,29.43
2018-02-23T15:33:53.577Z,31.40
2018-02-23T15:36:21.116Z,27.57
2018-02-23T15:38:48.626Z,24.20
2018-02-23T15:41:16.178Z,30.00
2018-02-23T15:43:43.693Z,26.70
2018-02-23T15:46:11.271Z,29.90
2018-02-23T15:48:46.289Z,27.30
2018-02-23T15:51:25.492Z,28.00
2018-02-23T15:53:53.010Z,34.07
2018-02-23T15:56:20.543Z,27.73
2018-02-23T15:58:48.073Z,28.13
2018-02-23T16:01:15.589Z,32.13
2018-02-23T16:03:43.121Z,35.57
2018-02-23T16:06:10.648Z,33.83
2018-02-23T16:08:38.174Z,34.50
2018-02-23T16:11:05.693Z,32.03
2018-02-23T16:13:33.228Z,34.30
2018-02-23T16:16:00.751Z,34.70
2018-02-23T16:18:28.306Z,36.87
2018-02-23T16:20:55.836Z,30.70
2018-02-23T16:23:23.353Z,31.63
2018-02-23T16:25:50.885Z,28.77
2018-02-23T16:28:18.423Z,31.23
2018-02-23T16:30:45.991Z,28.67
2018-02-23T16:33:13.511Z,25.47
2018-02-23T16:35:41.044Z,26.43
2018-02-23T16:38:08.568Z,23.63
2018-02-23T16:40:36.090Z,25.10
2018-02-23T16:43:03.609Z,30.47
2018-02-23T16:45:31.137Z,29.30
2018-02-23T16:47:58.666Z,25.17
2018-02-23T16:50:26.184Z,23.87
2018-02-23T16:52:53.710Z,24.03
2018-02-23T16:55:21.253Z,24.97
2018-02-23T16:57:48.774Z,22.40
2018-02-23T17:00:16.298Z,22.73
2018-02-23T17:02:43.828Z,24.20
2018-02-23T17:05:11.341Z,21.63
2018-02-23T17:07:38.860Z,20.30
2018-02-23T17:10:06.383Z,18.23
2018-02-23T17:12:33.910Z,22.93
2018-02-23T17:15:01.509Z,20.17
2018-02-23T17:17:29.026Z,25.20
2018-02-23T17:19:56.548Z,23.10
2018-02-23T17:22:24.072Z,21.77
2018-02-23T17:24:51.592Z,24.40
2018-02-23T17:27:19.129Z,23.77
2018-02-23T17:29:46.658Z,23.57
2018-02-23T17:32:14.181Z,25.63
2018-02-23T17:34:41.696Z,25.47
2018-02-23T17:37:09.251Z,23.30
2018-02-23T17:39:36.774Z,25.07
2018-02-23T17:42:04.290Z,23.60
2018-02-23T17:44:31.810Z,22.20
2018-02-23T17:46:59.353Z,22.17
2018-02-23T17:49:26.873Z,21.97
2018-02-23T17:51:54.401Z,20.37
2018-02-23T17:54:21.920Z,21.83
2018-02-23T17:56:52.123Z,23.60
2018-02-23T17:59:19.665Z,22.23
2018-02-23T18:01:47.176Z,25.53
2018-02-23T18:04:14.716Z,23.40
2018-02-23T18:06:42.244Z,23.27
2018-02-23T18:09:09.765Z,24.93
2018-02-23T18:11:37.286Z,19.80
2018-02-23T18:14:04.830Z,20.70
2018-02-23T18:16:32.354Z,22.30
2018-02-23T18:18:59.918Z,21.80
2018-02-23T18:21:27.445Z,18.90
2018-02-23T18:23:54.970Z,22.63
2018-02-23T18:26:22.490Z,24.03
2018-02-23T18:28:50.008Z,17.80
2018-02-23T18:31:17.531Z,22.10
2018-02-23T18:33:45.061Z,21.23
2018-02-23T18:36:12.573Z,22.30
2018-02-23T18:38:40.101Z,25.27
2018-02-23T18:41:07.625Z,20.63
2018-02-23T18:43:35.138Z,22.73
2018-02-23T18:46:02.676Z,23.13
2018-02-23T18:48:30.326Z,19.87
2018-02-23T18:50:57.859Z,23.70
2018-02-23T18:53:25.380Z,21.73
2018-02-23T18:55:52.895Z,25.77
2018-02-23T18:58:20.428Z,22.70
2018-02-23T19:00:48.024Z,24.70
2018-02-23T19:03:15.545Z,21.47
2018-02-23T19:05:43.060Z,21.93
2018-02-23T19:08:10.578Z,26.47
2018-02-23T19:10:38.170Z,21.23
2018-02-23T19:13:05.692Z,20.60
2018-02-23T19:15:33.248Z,22.60
2018-02-23T19:18:00.843Z,21.83
2018-02-23T19:20:28.362Z,23.53
2018-02-23T19:22:55.970Z,24.37
2018-02-23T19:25:23.529Z,22.73
2018-02-23T19:27:51.050Z,23.83
2018-02-23T19:30:18.573Z,22.33
2018-02-23T19:32:46.100Z,23.07
2018-02-23T19:35:13.621Z,23.33
2018-02-23T19:37:41.147Z,22.43
2018-02-23T19:40:08.779Z,23.50
2018-02-23T19:42:36.310Z,22.77
2018-02-23T19:45:03.828Z,27.30
2018-02-23T19:47:31.350Z,20.70
2018-02-23T19:49:58.878Z,23.27
2018-02-23T19:52:26.477Z,22.73
2018-02-23T19:54:54.012Z,25.43
2018-02-23T19:57:21.533Z,23.13
2018-02-23T19:59:49.061Z,25.73
2018-02-23T20:02:16.616Z,23.60
2018-02-23T20:04:44.129Z,26.43
2018-02-23T20:07:11.729Z,22.33
2018-02-23T20:09:39.369Z,21.60
2018-02-23T20:12:06.907Z,24.90
2018-02-23T20:14:34.434Z,23.87
2018-02-23T20:17:01.989Z,23.00
2018-02-23T20:19:29.500Z,21.43
2018-02-23T20:21:57.072Z,21.47
2018-02-23T20:24:24.590Z,25.27
2018-02-23T20:26:52.114Z,26.20
2018-02-23T20:29:19.636Z,21.13
2018-02-23T20:31:47.241Z,23.17
2018-02-23T20:34:14.767Z,27.60
2018-02-23T20:36:42.358Z,23.83
2018-02-23T20:39:09.878Z,22.93
2018-02-23T20:41:37.436Z,20.60
2018-02-23T20:44:05.005Z,22.90
2018-02-23T20:46:32.547Z,23.98
2018-02-23T20:49:00.073Z,25.87
2018-02-23T20:51:27.611Z,24.87
2018-02-23T20:53:55.131Z,22.70
2018-02-23T20:56:23.569Z,25.67
2018-02-23T20:58:51.124Z,19.93
2018-02-23T21:01:18.653Z,21.30
2018-02-23T21:03:46.169Z,21.27
2018-02-23T21:06:13.694Z,25.00
2018-02-23T21:08:41.217Z,20.80
2018-02-23T21:11:08.737Z,24.77
2018-02-23T21:13:36.274Z,21.30
2018-02-23T21:16:03.799Z,26.00
2018-02-23T21:18:31.380Z,24.10
2018-02-23T21:20:58.921Z,19.90
2018-02-23T21:23:26.451Z,20.90
2018-02-23T21:25:54.005Z,21.70
2018-02-23T21:28:21.530Z,20.90
2018-02-23T21:30:49.066Z,22.47
2018-02-23T21:33:16.593Z,25.07
2018-02-23T21:35:44.122Z,21.33
2018-02-23T21:38:11.642Z,23.70
2018-02-23T21:40:39.226Z,20.00
2018-02-23T21:43:06.762Z,21.53
2018-02-23T21:45:34.348Z,21.77
2018-02-23T21:48:01.867Z,21.20
2018-02-23T21:50:29.467Z,20.73
2018-02-23T21:52:56.997Z,20.00
2018-02-23T21:55:24.524Z,21.07
2018-02-23T21:57:52.072Z,24.13
2018-02-23T22:00:19.593Z,20.27
2018-02-23T22:02:47.159Z,22.17
2018-02-23T22:05:14.690Z,24.20
2018-02-23T22:07:42.241Z,23.33
2018-02-23T22:10:09.843Z,26.37
2018-02-23T22:12:37.393Z,26.27
2018-02-23T22:15:04.917Z,29.20
2018-02-23T22:17:32.524Z,28.60
2018-02-23T22:20:00.082Z,28.20
2018-02-23T22:22:27.600Z,29.30
2018-02-23T22:24:55.131Z,28.10
2018-02-23T22:27:22.658Z,32.40
2018-02-23T22:29:50.185Z,31.50
2018-02-23T22:32:17.784Z,28.30
2018-02-23T22:34:45.330Z,33.40
2018-02-23T22:37:12.857Z,32.97
2018-02-23T22:39:40.407Z,34.53
2018-02-23T22:42:07.940Z,29.83
2018-02-23T22:44:35.457Z,29.03
2018-02-23T22:47:03.039Z,29.77
2018-02-23T22:49:30.561Z,30.27
2018-02-23T22:51:58.095Z,33.03
2018-02-23T22:54:25.622Z,31.43
2018-02-23T22:56:53.173Z,29.83
2018-02-23T22:59:20.694Z,31.80
2018-02-23T23:01:48.249Z,27.83
2018-02-23T23:04:15.782Z,32.77
2018-02-23T23:06:43.301Z,30.27
2018-02-23T23:09:10.829Z,37.83
2018-02-23T23:11:38.395Z,29.83
2018-02-23T23:14:05.981Z,33.40
2018-02-23T23:16:33.527Z,27.87
2018-02-23T23:19:01.052Z,31.73
2018-02-23T23:21:28.574Z,31.33
2018-02-23T23:23:56.100Z,27.70
2018-02-23T23:26:23.652Z,36.23
2018-02-23T23:28:51.186Z,28.63
2018-02-23T23:31:18.713Z,26.17
2018-02-23T23:33:46.258Z,30.17
2018-02-23T23:36:13.786Z,29.17
2018-02-23T23:38:41.380Z,27.67
2018-02-23T23:41:08.909Z,32.30
2018-02-23T23:43:36.441Z,26.53
2018-02-23T23:46:03.970Z,26.00
2018-02-23T23:48:31.513Z,26.80
2018-02-23T23:50:59.041Z,25.73
2018-02-23T23:53:26.567Z,27.47
2018-02-23T23:55:54.093Z,27.80
2018-02-23T23:58:21.623Z,26.17
